Terminal Aerodrome Forecast
Issued by NWS

Home | Current Version | Previous Version | Text Only | Print | Product List | Glossary On
Versions: 1 2 3 4 5 6 7 8 9 10 11 12 13 14 15
000
FTPA31 PHFO 290540
TAFHOG
TAF
PHOG 290540Z 2906/3006 02008KT P6SM SCT040
     FM290800 VRB03KT P6SM FEW040
     FM292100 02012KT P6SM SCT030 SCT060
      AMD LTD TO VIS AND WIND 2909/2916=

USA.gov is the U.S. government's official web portal to all federal, state and local government web resources and services.